sensor_id;sensor_type;location;lat;lon;timestamp;P1;durP1;ratioP1;P2;durP2;ratioP2
39094;SDS011;24840;47.508;19.376;2023-03-23T00:01:31;5.30;;;3.30;;
39094;SDS011;24840;47.508;19.376;2023-03-23T00:04:02;4.00;;;2.67;;
39094;SDS011;24840;47.508;19.376;2023-03-23T00:06:28;7.13;;;3.17;;
39094;SDS011;24840;47.508;19.376;2023-03-23T00:08:58;4.17;;;3.30;;
39094;SDS011;24840;47.508;19.376;2023-03-23T00:11:29;3.70;;;2.63;;
39094;SDS011;24840;47.508;19.376;2023-03-23T00:13:57;4.97;;;3.17;;
39094;SDS011;24840;47.508;19.376;2023-03-23T00:16:26;4.00;;;3.03;;
39094;SDS011;24840;47.508;19.376;2023-03-23T00:18:55;4.00;;;3.03;;
39094;SDS011;24840;47.508;19.376;2023-03-23T00:21:23;10.70;;;4.07;;
39094;SDS011;24840;47.508;19.376;2023-03-23T00:23:57;6.47;;;3.10;;
39094;SDS011;24840;47.508;19.376;2023-03-23T00:26:27;6.47;;;3.70;;
39094;SDS011;24840;47.508;19.376;2023-03-23T00:28:54;5.90;;;2.90;;
39094;SDS011;24840;47.508;19.376;2023-03-23T00:31:20;4.13;;;2.60;;
39094;SDS011;24840;47.508;19.376;2023-03-23T00:33:46;4.27;;;2.57;;
39094;SDS011;24840;47.508;19.376;2023-03-23T00:36:12;3.50;;;2.17;;
39094;SDS011;24840;47.508;19.376;2023-03-23T00:38:39;4.13;;;2.63;;
39094;SDS011;24840;47.508;19.376;2023-03-23T00:41:07;3.60;;;2.23;;
39094;SDS011;24840;47.508;19.376;2023-03-23T00:43:36;4.50;;;2.60;;
39094;SDS011;24840;47.508;19.376;2023-03-23T00:46:03;3.23;;;2.30;;
39094;SDS011;24840;47.508;19.376;2023-03-23T00:48:33;2.63;;;2.00;;
39094;SDS011;24840;47.508;19.376;2023-03-23T00:51:00;3.53;;;2.40;;
39094;SDS011;24840;47.508;19.376;2023-03-23T00:53:31;4.80;;;2.80;;
39094;SDS011;24840;47.508;19.376;2023-03-23T00:55:57;6.37;;;4.47;;
39094;SDS011;24840;47.508;19.376;2023-03-23T00:58:23;7.97;;;3.20;;
39094;SDS011;24840;47.508;19.376;2023-03-23T01:00:49;5.17;;;2.87;;
39094;SDS011;24840;47.508;19.376;2023-03-23T01:03:16;3.93;;;2.53;;
39094;SDS011;24840;47.508;19.376;2023-03-23T01:05:43;3.67;;;2.80;;
39094;SDS011;24840;47.508;19.376;2023-03-23T01:08:11;5.13;;;2.80;;
39094;SDS011;24840;47.508;19.376;2023-03-23T01:10:39;4.10;;;2.10;;
39094;SDS011;24840;47.508;19.376;2023-03-23T01:13:05;3.07;;;2.20;;
39094;SDS011;24840;47.508;19.376;2023-03-23T01:15:32;4.07;;;2.40;;
39094;SDS011;24840;47.508;19.376;2023-03-23T01:17:58;3.00;;;2.13;;
39094;SDS011;24840;47.508;19.376;2023-03-23T01:20:24;3.17;;;2.20;;
39094;SDS011;24840;47.508;19.376;2023-03-23T01:22:51;3.67;;;2.20;;
39094;SDS011;24840;47.508;19.376;2023-03-23T01:25:18;9.60;;;3.37;;
39094;SDS011;24840;47.508;19.376;2023-03-23T01:27:43;3.97;;;2.60;;
39094;SDS011;24840;47.508;19.376;2023-03-23T01:30:10;4.27;;;2.00;;
39094;SDS011;24840;47.508;19.376;2023-03-23T01:32:37;3.83;;;2.93;;
39094;SDS011;24840;47.508;19.376;2023-03-23T01:35:03;4.73;;;2.80;;
39094;SDS011;24840;47.508;19.376;2023-03-23T01:37:29;3.53;;;2.10;;
39094;SDS011;24840;47.508;19.376;2023-03-23T01:39:57;4.20;;;2.87;;
39094;SDS011;24840;47.508;19.376;2023-03-23T01:42:24;4.33;;;2.50;;
39094;SDS011;24840;47.508;19.376;2023-03-23T01:47:17;3.17;;;2.23;;
39094;SDS011;24840;47.508;19.376;2023-03-23T01:49:48;2.60;;;2.03;;
39094;SDS011;24840;47.508;19.376;2023-03-23T01:52:20;3.80;;;2.53;;
39094;SDS011;24840;47.508;19.376;2023-03-23T01:54:51;3.33;;;2.47;;
39094;SDS011;24840;47.508;19.376;2023-03-23T01:57:20;4.40;;;2.63;;
39094;SDS011;24840;47.508;19.376;2023-03-23T01:59:49;5.60;;;2.27;;
39094;SDS011;24840;47.508;19.376;2023-03-23T02:02:17;3.90;;;2.60;;
39094;SDS011;24840;47.508;19.376;2023-03-23T02:04:46;6.23;;;2.83;;
39094;SDS011;24840;47.508;19.376;2023-03-23T02:07:12;4.33;;;2.50;;
39094;SDS011;24840;47.508;19.376;2023-03-23T02:09:42;3.77;;;2.37;;
39094;SDS011;24840;47.508;19.376;2023-03-23T02:12:07;4.33;;;2.57;;
39094;SDS011;24840;47.508;19.376;2023-03-23T02:14:33;4.10;;;2.40;;
39094;SDS011;24840;47.508;19.376;2023-03-23T02:17:01;3.73;;;2.67;;
39094;SDS011;24840;47.508;19.376;2023-03-23T02:19:45;5.60;;;2.60;;
39094;SDS011;24840;47.508;19.376;2023-03-23T02:28:22;5.43;;;3.53;;
39094;SDS011;24840;47.508;19.376;2023-03-23T02:33:58;7.70;;;3.07;;
39094;SDS011;24840;47.508;19.376;2023-03-23T02:36:34;4.97;;;3.20;;
39094;SDS011;24840;47.508;19.376;2023-03-23T02:41:47;4.37;;;3.30;;
39094;SDS011;24840;47.508;19.376;2023-03-23T02:44:18;6.23;;;3.40;;
39094;SDS011;24840;47.508;19.376;2023-03-23T02:46:44;6.67;;;3.60;;
39094;SDS011;24840;47.508;19.376;2023-03-23T02:49:12;6.63;;;4.07;;
39094;SDS011;24840;47.508;19.376;2023-03-23T02:51:40;9.07;;;4.30;;
39094;SDS011;24840;47.508;19.376;2023-03-23T02:54:10;6.47;;;3.80;;
39094;SDS011;24840;47.508;19.376;2023-03-23T02:56:38;8.93;;;4.17;;
39094;SDS011;24840;47.508;19.376;2023-03-23T02:59:05;11.83;;;5.43;;
39094;SDS011;24840;47.508;19.376;2023-03-23T03:04:13;8.75;;;4.90;;
39094;SDS011;24840;47.508;19.376;2023-03-23T03:09:13;16.30;;;6.00;;
39094;SDS011;24840;47.508;19.376;2023-03-23T03:11:49;15.70;;;7.00;;
39094;SDS011;24840;47.508;19.376;2023-03-23T03:14:20;10.60;;;6.37;;
39094;SDS011;24840;47.508;19.376;2023-03-23T03:19:37;9.30;;;5.70;;
39094;SDS011;24840;47.508;19.376;2023-03-23T03:22:06;9.77;;;5.37;;
39094;SDS011;24840;47.508;19.376;2023-03-23T03:24:34;9.10;;;6.13;;
39094;SDS011;24840;47.508;19.376;2023-03-23T03:27:05;7.82;;;5.10;;
39094;SDS011;24840;47.508;19.376;2023-03-23T03:29:40;7.17;;;5.50;;
39094;SDS011;24840;47.508;19.376;2023-03-23T03:32:08;7.70;;;5.57;;
39094;SDS011;24840;47.508;19.376;2023-03-23T03:34:37;11.07;;;5.50;;
39094;SDS011;24840;47.508;19.376;2023-03-23T03:37:04;10.07;;;6.77;;
39094;SDS011;24840;47.508;19.376;2023-03-23T03:39:31;12.80;;;5.90;;
39094;SDS011;24840;47.508;19.376;2023-03-23T03:42:00;9.60;;;6.13;;
39094;SDS011;24840;47.508;19.376;2023-03-23T03:44:26;12.47;;;6.40;;
39094;SDS011;24840;47.508;19.376;2023-03-23T03:46:52;10.97;;;5.93;;
39094;SDS011;24840;47.508;19.376;2023-03-23T03:49:18;11.50;;;5.53;;
39094;SDS011;24840;47.508;19.376;2023-03-23T03:51:43;8.10;;;5.57;;
39094;SDS011;24840;47.508;19.376;2023-03-23T03:54:11;11.73;;;6.90;;
39094;SDS011;24840;47.508;19.376;2023-03-23T03:56:37;7.93;;;5.17;;
39094;SDS011;24840;47.508;19.376;2023-03-23T03:59:07;9.30;;;6.63;;
39094;SDS011;24840;47.508;19.376;2023-03-23T04:01:34;10.90;;;6.97;;
39094;SDS011;24840;47.508;19.376;2023-03-23T04:04:02;8.40;;;6.50;;
39094;SDS011;24840;47.508;19.376;2023-03-23T04:06:29;11.90;;;7.13;;
39094;SDS011;24840;47.508;19.376;2023-03-23T04:08:56;12.10;;;7.23;;
39094;SDS011;24840;47.508;19.376;2023-03-23T04:11:24;11.33;;;7.70;;
39094;SDS011;24840;47.508;19.376;2023-03-23T04:13:51;11.63;;;7.90;;
39094;SDS011;24840;47.508;19.376;2023-03-23T04:16:17;20.90;;;7.73;;
39094;SDS011;24840;47.508;19.376;2023-03-23T04:18:43;14.20;;;7.93;;
39094;SDS011;24840;47.508;19.376;2023-03-23T04:21:09;11.23;;;7.13;;
39094;SDS011;24840;47.508;19.376;2023-03-23T04:23:35;13.80;;;8.53;;
39094;SDS011;24840;47.508;19.376;2023-03-23T04:26:02;13.83;;;8.43;;
39094;SDS011;24840;47.508;19.376;2023-03-23T04:28:28;12.73;;;8.70;;
39094;SDS011;24840;47.508;19.376;2023-03-23T04:30:58;13.20;;;8.80;;
39094;SDS011;24840;47.508;19.376;2023-03-23T04:33:25;10.07;;;7.40;;
39094;SDS011;24840;47.508;19.376;2023-03-23T04:35:53;17.67;;;8.47;;
39094;SDS011;24840;47.508;19.376;2023-03-23T04:38:22;13.97;;;8.00;;
39094;SDS011;24840;47.508;19.376;2023-03-23T04:40:50;16.00;;;8.27;;
39094;SDS011;24840;47.508;19.376;2023-03-23T04:43:17;18.67;;;8.00;;
39094;SDS011;24840;47.508;19.376;2023-03-23T04:45:46;14.67;;;7.30;;
39094;SDS011;24840;47.508;19.376;2023-03-23T04:48:16;14.97;;;7.47;;
39094;SDS011;24840;47.508;19.376;2023-03-23T04:50:43;14.77;;;7.33;;
39094;SDS011;24840;47.508;19.376;2023-03-23T04:53:09;10.70;;;6.83;;
39094;SDS011;24840;47.508;19.376;2023-03-23T04:55:36;11.87;;;8.07;;
39094;SDS011;24840;47.508;19.376;2023-03-23T04:58:05;18.00;;;7.67;;
39094;SDS011;24840;47.508;19.376;2023-03-23T05:00:32;19.10;;;7.63;;
39094;SDS011;24840;47.508;19.376;2023-03-23T05:02:59;19.37;;;7.50;;
39094;SDS011;24840;47.508;19.376;2023-03-23T05:05:26;20.03;;;7.93;;
39094;SDS011;24840;47.508;19.376;2023-03-23T05:07:56;29.87;;;7.97;;
39094;SDS011;24840;47.508;19.376;2023-03-23T05:10:22;18.83;;;7.23;;
39094;SDS011;24840;47.508;19.376;2023-03-23T05:12:49;12.00;;;6.90;;
39094;SDS011;24840;47.508;19.376;2023-03-23T05:15:15;10.37;;;7.43;;
39094;SDS011;24840;47.508;19.376;2023-03-23T05:17:42;11.43;;;6.37;;
39094;SDS011;24840;47.508;19.376;2023-03-23T05:20:12;21.50;;;7.23;;
39094;SDS011;24840;47.508;19.376;2023-03-23T05:22:40;32.80;;;8.03;;
39094;SDS011;24840;47.508;19.376;2023-03-23T05:25:07;16.60;;;7.57;;
39094;SDS011;24840;47.508;19.376;2023-03-23T05:27:37;22.23;;;8.33;;
39094;SDS011;24840;47.508;19.376;2023-03-23T05:30:03;20.30;;;7.60;;
39094;SDS011;24840;47.508;19.376;2023-03-23T05:32:31;19.30;;;8.27;;
39094;SDS011;24840;47.508;19.376;2023-03-23T05:34:58;16.23;;;6.80;;
39094;SDS011;24840;47.508;19.376;2023-03-23T05:37:25;12.80;;;6.77;;
39094;SDS011;24840;47.508;19.376;2023-03-23T05:39:53;20.10;;;6.20;;
39094;SDS011;24840;47.508;19.376;2023-03-23T05:42:23;22.93;;;7.30;;
39094;SDS011;24840;47.508;19.376;2023-03-23T05:44:49;13.50;;;6.63;;
39094;SDS011;24840;47.508;19.376;2023-03-23T05:47:15;14.60;;;6.23;;
39094;SDS011;24840;47.508;19.376;2023-03-23T05:49:41;17.60;;;7.73;;
39094;SDS011;24840;47.508;19.376;2023-03-23T05:52:07;14.63;;;6.73;;
39094;SDS011;24840;47.508;19.376;2023-03-23T05:54:33;16.37;;;6.23;;
39094;SDS011;24840;47.508;19.376;2023-03-23T05:57:02;11.77;;;5.53;;
39094;SDS011;24840;47.508;19.376;2023-03-23T05:59:28;6.73;;;4.93;;
39094;SDS011;24840;47.508;19.376;2023-03-23T06:01:54;7.03;;;3.93;;
39094;SDS011;24840;47.508;19.376;2023-03-23T06:04:20;6.17;;;4.50;;
39094;SDS011;24840;47.508;19.376;2023-03-23T06:06:49;7.10;;;3.63;;
39094;SDS011;24840;47.508;19.376;2023-03-23T06:09:17;6.00;;;3.87;;
39094;SDS011;24840;47.508;19.376;2023-03-23T06:11:43;7.07;;;4.03;;
39094;SDS011;24840;47.508;19.376;2023-03-23T06:14:09;6.80;;;3.77;;
39094;SDS011;24840;47.508;19.376;2023-03-23T06:16:35;5.27;;;4.23;;
39094;SDS011;24840;47.508;19.376;2023-03-23T06:19:01;7.87;;;4.10;;
39094;SDS011;24840;47.508;19.376;2023-03-23T06:21:29;7.00;;;3.83;;
39094;SDS011;24840;47.508;19.376;2023-03-23T06:23:55;5.67;;;4.37;;
39094;SDS011;24840;47.508;19.376;2023-03-23T06:26:22;7.10;;;4.87;;
39094;SDS011;24840;47.508;19.376;2023-03-23T06:28:50;20.37;;;9.03;;
39094;SDS011;24840;47.508;19.376;2023-03-23T06:31:17;9.40;;;6.33;;
39094;SDS011;24840;47.508;19.376;2023-03-23T06:33:45;12.77;;;7.03;;
39094;SDS011;24840;47.508;19.376;2023-03-23T06:36:12;14.03;;;7.17;;
39094;SDS011;24840;47.508;19.376;2023-03-23T06:38:38;16.80;;;9.57;;
39094;SDS011;24840;47.508;19.376;2023-03-23T06:41:04;16.23;;;10.20;;
39094;SDS011;24840;47.508;19.376;2023-03-23T06:43:30;13.03;;;9.23;;
39094;SDS011;24840;47.508;19.376;2023-03-23T06:46:00;14.97;;;9.67;;
39094;SDS011;24840;47.508;19.376;2023-03-23T06:48:26;15.53;;;10.23;;
39094;SDS011;24840;47.508;19.376;2023-03-23T06:50:52;10.73;;;9.03;;
39094;SDS011;24840;47.508;19.376;2023-03-23T06:53:18;14.87;;;8.73;;
39094;SDS011;24840;47.508;19.376;2023-03-23T06:55:45;10.83;;;8.00;;
39094;SDS011;24840;47.508;19.376;2023-03-23T06:58:12;10.13;;;8.60;;
39094;SDS011;24840;47.508;19.376;2023-03-23T07:00:38;10.20;;;8.20;;
39094;SDS011;24840;47.508;19.376;2023-03-23T07:03:05;17.37;;;8.97;;
39094;SDS011;24840;47.508;19.376;2023-03-23T07:05:32;10.63;;;8.00;;
39094;SDS011;24840;47.508;19.376;2023-03-23T07:07:59;8.30;;;6.67;;
39094;SDS011;24840;47.508;19.376;2023-03-23T07:10:25;10.70;;;7.57;;
39094;SDS011;24840;47.508;19.376;2023-03-23T07:12:51;11.20;;;7.97;;
39094;SDS011;24840;47.508;19.376;2023-03-23T07:15:16;11.43;;;8.07;;
39094;SDS011;24840;47.508;19.376;2023-03-23T07:17:42;11.07;;;6.65;;
39094;SDS011;24840;47.508;19.376;2023-03-23T07:20:08;14.13;;;8.27;;
39094;SDS011;24840;47.508;19.376;2023-03-23T07:22:35;10.02;;;7.80;;
39094;SDS011;24840;47.508;19.376;2023-03-23T07:25:00;11.75;;;7.97;;
39094;SDS011;24840;47.508;19.376;2023-03-23T07:27:35;9.77;;;8.05;;
39094;SDS011;24840;47.508;19.376;2023-03-23T07:30:06;14.65;;;8.75;;
39094;SDS011;24840;47.508;19.376;2023-03-23T07:32:41;12.70;;;8.20;;
39094;SDS011;24840;47.508;19.376;2023-03-23T07:35:07;14.07;;;7.95;;
39094;SDS011;24840;47.508;19.376;2023-03-23T07:37:34;8.30;;;6.43;;
39094;SDS011;24840;47.508;19.376;2023-03-23T07:40:03;9.55;;;7.88;;
39094;SDS011;24840;47.508;19.376;2023-03-23T07:42:51;9.85;;;7.68;;
39094;SDS011;24840;47.508;19.376;2023-03-23T07:45:21;10.77;;;7.05;;
39094;SDS011;24840;47.508;19.376;2023-03-23T07:47:47;11.20;;;7.63;;
39094;SDS011;24840;47.508;19.376;2023-03-23T07:50:13;11.27;;;7.38;;
39094;SDS011;24840;47.508;19.376;2023-03-23T07:52:39;10.35;;;7.38;;
39094;SDS011;24840;47.508;19.376;2023-03-23T07:55:07;9.27;;;6.72;;
39094;SDS011;24840;47.508;19.376;2023-03-23T07:57:36;10.45;;;7.53;;
39094;SDS011;24840;47.508;19.376;2023-03-23T08:00:03;9.32;;;7.45;;
39094;SDS011;24840;47.508;19.376;2023-03-23T08:02:38;9.75;;;6.53;;
39094;SDS011;24840;47.508;19.376;2023-03-23T08:05:04;9.63;;;7.28;;
39094;SDS011;24840;47.508;19.376;2023-03-23T08:07:30;9.95;;;7.25;;
39094;SDS011;24840;47.508;19.376;2023-03-23T08:09:56;18.38;;;7.28;;
39094;SDS011;24840;47.508;19.376;2023-03-23T08:12:21;11.25;;;6.78;;
39094;SDS011;24840;47.508;19.376;2023-03-23T08:14:47;9.20;;;7.78;;
39094;SDS011;24840;47.508;19.376;2023-03-23T08:17:13;10.98;;;6.88;;
39094;SDS011;24840;47.508;19.376;2023-03-23T08:19:39;7.85;;;6.93;;
39094;SDS011;24840;47.508;19.376;2023-03-23T08:22:05;8.43;;;6.30;;
39094;SDS011;24840;47.508;19.376;2023-03-23T08:24:31;8.75;;;7.07;;
39094;SDS011;24840;47.508;19.376;2023-03-23T08:26:58;10.85;;;7.20;;
39094;SDS011;24840;47.508;19.376;2023-03-23T08:29:24;11.98;;;7.15;;
39094;SDS011;24840;47.508;19.376;2023-03-23T08:31:50;8.07;;;6.68;;
39094;SDS011;24840;47.508;19.376;2023-03-23T08:34:16;9.15;;;6.47;;
39094;SDS011;24840;47.508;19.376;2023-03-23T08:36:42;8.00;;;5.80;;
39094;SDS011;24840;47.508;19.376;2023-03-23T08:39:09;6.93;;;5.95;;
39094;SDS011;24840;47.508;19.376;2023-03-23T08:41:35;10.13;;;6.03;;
39094;SDS011;24840;47.508;19.376;2023-03-23T08:44:01;7.72;;;6.20;;
39094;SDS011;24840;47.508;19.376;2023-03-23T08:46:28;8.95;;;6.15;;
39094;SDS011;24840;47.508;19.376;2023-03-23T08:48:54;8.70;;;5.85;;
39094;SDS011;24840;47.508;19.376;2023-03-23T08:51:19;7.50;;;5.97;;
39094;SDS011;24840;47.508;19.376;2023-03-23T08:53:45;6.13;;;5.13;;
39094;SDS011;24840;47.508;19.376;2023-03-23T08:56:11;12.15;;;5.65;;
39094;SDS011;24840;47.508;19.376;2023-03-23T08:58:38;8.00;;;5.43;;
39094;SDS011;24840;47.508;19.376;2023-03-23T09:01:05;8.00;;;6.43;;
39094;SDS011;24840;47.508;19.376;2023-03-23T09:03:32;10.55;;;5.53;;
39094;SDS011;24840;47.508;19.376;2023-03-23T09:06:00;7.32;;;5.45;;
39094;SDS011;24840;47.508;19.376;2023-03-23T09:08:27;6.47;;;4.53;;
39094;SDS011;24840;47.508;19.376;2023-03-23T09:10:55;6.70;;;5.00;;
39094;SDS011;24840;47.508;19.376;2023-03-23T09:13:24;5.30;;;4.80;;
39094;SDS011;24840;47.508;19.376;2023-03-23T09:15:50;6.38;;;4.95;;
39094;SDS011;24840;47.508;19.376;2023-03-23T09:18:17;5.53;;;4.85;;
39094;SDS011;24840;47.508;19.376;2023-03-23T09:20:44;7.53;;;6.10;;
39094;SDS011;24840;47.508;19.376;2023-03-23T09:23:11;6.43;;;5.28;;
39094;SDS011;24840;47.508;19.376;2023-03-23T09:25:38;6.95;;;5.05;;
39094;SDS011;24840;47.508;19.376;2023-03-23T09:28:05;7.85;;;5.45;;
39094;SDS011;24840;47.508;19.376;2023-03-23T09:30:31;6.50;;;4.50;;
39094;SDS011;24840;47.508;19.376;2023-03-23T09:32:59;5.05;;;4.18;;
39094;SDS011;24840;47.508;19.376;2023-03-23T09:35:26;6.00;;;3.75;;
39094;SDS011;24840;47.508;19.376;2023-03-23T09:37:52;6.47;;;4.70;;
39094;SDS011;24840;47.508;19.376;2023-03-23T09:41:08;5.88;;;3.85;;
39094;SDS011;24840;47.508;19.376;2023-03-23T09:54:10;5.53;;;3.45;;
39094;SDS011;24840;47.508;19.376;2023-03-23T09:56:43;5.22;;;3.08;;
39094;SDS011;24840;47.508;19.376;2023-03-23T09:59:25;4.00;;;3.22;;
39094;SDS011;24840;47.508;19.376;2023-03-23T10:02:21;4.35;;;2.88;;
39094;SDS011;24840;47.508;19.376;2023-03-23T10:04:56;9.27;;;3.47;;
39094;SDS011;24840;47.508;19.376;2023-03-23T10:07:32;3.92;;;2.60;;
39094;SDS011;24840;47.508;19.376;2023-03-23T10:09:59;5.20;;;2.20;;
39094;SDS011;24840;47.508;19.376;2023-03-23T10:15:14;2.85;;;2.03;;
39094;SDS011;24840;47.508;19.376;2023-03-23T10:20:21;2.85;;;2.15;;
39094;SDS011;24840;47.508;19.376;2023-03-23T10:28:54;3.67;;;1.88;;
39094;SDS011;24840;47.508;19.376;2023-03-23T10:31:50;3.80;;;1.75;;
39094;SDS011;24840;47.508;19.376;2023-03-23T10:34:27;4.80;;;1.85;;
39094;SDS011;24840;47.508;19.376;2023-03-23T10:37:13;3.90;;;1.73;;
39094;SDS011;24840;47.508;19.376;2023-03-23T10:39:53;3.85;;;1.67;;
39094;SDS011;24840;47.508;19.376;2023-03-23T10:42:31;2.97;;;1.80;;
39094;SDS011;24840;47.508;19.376;2023-03-23T10:50:45;1.55;;;1.10;;
39094;SDS011;24840;47.508;19.376;2023-03-23T10:53:25;3.13;;;1.55;;
39094;SDS011;24840;47.508;19.376;2023-03-23T10:56:03;6.10;;;1.58;;
39094;SDS011;24840;47.508;19.376;2023-03-23T10:58:30;9.85;;;1.90;;
39094;SDS011;24840;47.508;19.376;2023-03-23T11:00:59;1.67;;;0.90;;
39094;SDS011;24840;47.508;19.376;2023-03-23T11:06:10;3.30;;;1.42;;
39094;SDS011;24840;47.508;19.376;2023-03-23T11:11:28;2.42;;;1.20;;
39094;SDS011;24840;47.508;19.376;2023-03-23T11:13:59;2.10;;;1.08;;
39094;SDS011;24840;47.508;19.376;2023-03-23T11:16:42;4.07;;;1.27;;
39094;SDS011;24840;47.508;19.376;2023-03-23T11:19:21;2.55;;;1.38;;
39094;SDS011;24840;47.508;19.376;2023-03-23T11:21:52;2.17;;;1.00;;
39094;SDS011;24840;47.508;19.376;2023-03-23T11:24:34;1.67;;;1.05;;
39094;SDS011;24840;47.508;19.376;2023-03-23T11:27:11;2.38;;;1.42;;
39094;SDS011;24840;47.508;19.376;2023-03-23T11:32:34;2.88;;;1.38;;
39094;SDS011;24840;47.508;19.376;2023-03-23T11:35:01;10.45;;;2.10;;
39094;SDS011;24840;47.508;19.376;2023-03-23T11:37:43;9.77;;;1.92;;
39094;SDS011;24840;47.508;19.376;2023-03-23T11:40:18;1.65;;;1.20;;
39094;SDS011;24840;47.508;19.376;2023-03-23T11:43:07;3.58;;;1.35;;
39094;SDS011;24840;47.508;19.376;2023-03-23T11:48:54;1.75;;;1.00;;
39094;SDS011;24840;47.508;19.376;2023-03-23T11:51:39;3.05;;;1.50;;
39094;SDS011;24840;47.508;19.376;2023-03-23T11:56:38;3.53;;;1.17;;
39094;SDS011;24840;47.508;19.376;2023-03-23T11:59:10;8.18;;;1.77;;
39094;SDS011;24840;47.508;19.376;2023-03-23T12:10:13;2.17;;;1.63;;
39094;SDS011;24840;47.508;19.376;2023-03-23T12:15:19;5.00;;;1.98;;
39094;SDS011;24840;47.508;19.376;2023-03-23T12:18:44;5.60;;;1.60;;
39094;SDS011;24840;47.508;19.376;2023-03-23T12:35:02;5.32;;;1.35;;
39094;SDS011;24840;47.508;19.376;2023-03-23T12:48:43;1.58;;;1.42;;
39094;SDS011;24840;47.508;19.376;2023-03-23T12:51:21;4.30;;;1.83;;
39094;SDS011;24840;47.508;19.376;2023-03-23T13:02:20;9.02;;;2.17;;
39094;SDS011;24840;47.508;19.376;2023-03-23T13:04:59;4.75;;;2.10;;
39094;SDS011;24840;47.508;19.376;2023-03-23T13:07:47;14.05;;;2.25;;
39094;SDS011;24840;47.508;19.376;2023-03-23T13:12:47;5.90;;;1.70;;
39094;SDS011;24840;47.508;19.376;2023-03-23T13:20:32;2.28;;;1.30;;
39094;SDS011;24840;47.508;19.376;2023-03-23T13:23:08;3.63;;;1.88;;
39094;SDS011;24840;47.508;19.376;2023-03-23T13:28:22;3.90;;;1.65;;
39094;SDS011;24840;47.508;19.376;2023-03-23T13:31:02;3.10;;;1.77;;
39094;SDS011;24840;47.508;19.376;2023-03-23T13:33:35;2.90;;;1.90;;
39094;SDS011;24840;47.508;19.376;2023-03-23T13:36:02;4.18;;;2.45;;
39094;SDS011;24840;47.508;19.376;2023-03-23T13:38:34;4.65;;;2.50;;
39094;SDS011;24840;47.508;19.376;2023-03-23T13:41:10;2.58;;;1.70;;
39094;SDS011;24840;47.508;19.376;2023-03-23T13:43:38;2.05;;;1.67;;
39094;SDS011;24840;47.508;19.376;2023-03-23T13:46:27;4.13;;;2.42;;
39094;SDS011;24840;47.508;19.376;2023-03-23T13:56:56;3.88;;;1.83;;
39094;SDS011;24840;47.508;19.376;2023-03-23T14:01:53;5.22;;;1.90;;
39094;SDS011;24840;47.508;19.376;2023-03-23T14:04:20;7.20;;;1.95;;
39094;SDS011;24840;47.508;19.376;2023-03-23T14:06:48;2.75;;;1.70;;
39094;SDS011;24840;47.508;19.376;2023-03-23T14:09:16;8.57;;;1.70;;
39094;SDS011;24840;47.508;19.376;2023-03-23T14:11:56;11.75;;;2.10;;
39094;SDS011;24840;47.508;19.376;2023-03-23T14:14:40;3.03;;;1.85;;
39094;SDS011;24840;47.508;19.376;2023-03-23T14:17:12;5.88;;;1.40;;
39094;SDS011;24840;47.508;19.376;2023-03-23T14:19:39;4.82;;;1.42;;
39094;SDS011;24840;47.508;19.376;2023-03-23T14:22:21;50.00;;;5.53;;
39094;SDS011;24840;47.508;19.376;2023-03-23T14:24:49;46.55;;;5.90;;
39094;SDS011;24840;47.508;19.376;2023-03-23T14:27:19;2.35;;;1.98;;
39094;SDS011;24840;47.508;19.376;2023-03-23T14:29:49;6.80;;;1.80;;
39094;SDS011;24840;47.508;19.376;2023-03-23T14:32:25;78.85;;;8.60;;
39094;SDS011;24840;47.508;19.376;2023-03-23T14:34:54;7.80;;;2.55;;
39094;SDS011;24840;47.508;19.376;2023-03-23T14:37:20;2.80;;;1.50;;
39094;SDS011;24840;47.508;19.376;2023-03-23T14:39:51;10.00;;;2.13;;
39094;SDS011;24840;47.508;19.376;2023-03-23T14:42:27;7.07;;;2.50;;
39094;SDS011;24840;47.508;19.376;2023-03-23T14:44:59;7.18;;;2.20;;
39094;SDS011;24840;47.508;19.376;2023-03-23T14:47:29;8.27;;;2.00;;
39094;SDS011;24840;47.508;19.376;2023-03-23T14:50:00;6.03;;;1.88;;
39094;SDS011;24840;47.508;19.376;2023-03-23T14:52:34;9.75;;;2.58;;
39094;SDS011;24840;47.508;19.376;2023-03-23T14:57:56;2.95;;;1.55;;
39094;SDS011;24840;47.508;19.376;2023-03-23T15:00:33;3.15;;;1.52;;
39094;SDS011;24840;47.508;19.376;2023-03-23T15:03:12;2.55;;;1.25;;
39094;SDS011;24840;47.508;19.376;2023-03-23T15:05:46;2.40;;;1.35;;
39094;SDS011;24840;47.508;19.376;2023-03-23T15:08:22;2.95;;;1.40;;
39094;SDS011;24840;47.508;19.376;2023-03-23T15:11:06;4.20;;;1.27;;
39094;SDS011;24840;47.508;19.376;2023-03-23T15:13:36;3.03;;;1.43;;
39094;SDS011;24840;47.508;19.376;2023-03-23T15:16:29;2.38;;;1.10;;
39094;SDS011;24840;47.508;19.376;2023-03-23T15:18:59;2.20;;;1.45;;
39094;SDS011;24840;47.508;19.376;2023-03-23T15:23:54;3.03;;;1.55;;
39094;SDS011;24840;47.508;19.376;2023-03-23T15:26:28;2.63;;;1.08;;
39094;SDS011;24840;47.508;19.376;2023-03-23T15:31:32;2.05;;;1.25;;
39094;SDS011;24840;47.508;19.376;2023-03-23T15:34:00;5.22;;;1.10;;
39094;SDS011;24840;47.508;19.376;2023-03-23T15:36:31;2.72;;;1.63;;
39094;SDS011;24840;47.508;19.376;2023-03-23T15:38:59;1.20;;;0.93;;
39094;SDS011;24840;47.508;19.376;2023-03-23T15:41:29;1.60;;;0.95;;
39094;SDS011;24840;47.508;19.376;2023-03-23T15:43:58;3.15;;;1.15;;
39094;SDS011;24840;47.508;19.376;2023-03-23T15:46:38;2.95;;;0.80;;
39094;SDS011;24840;47.508;19.376;2023-03-23T15:49:16;18.65;;;2.13;;
39094;SDS011;24840;47.508;19.376;2023-03-23T15:51:42;9.15;;;1.25;;
39094;SDS011;24840;47.508;19.376;2023-03-23T15:54:17;2.10;;;1.30;;
39094;SDS011;24840;47.508;19.376;2023-03-23T15:56:43;1.50;;;0.70;;
39094;SDS011;24840;47.508;19.376;2023-03-23T15:59:09;3.58;;;1.25;;
39094;SDS011;24840;47.508;19.376;2023-03-23T16:01:36;4.13;;;1.50;;
39094;SDS011;24840;47.508;19.376;2023-03-23T16:04:05;2.83;;;1.17;;
39094;SDS011;24840;47.508;19.376;2023-03-23T16:06:40;3.60;;;1.33;;
39094;SDS011;24840;47.508;19.376;2023-03-23T16:09:07;6.00;;;2.83;;
39094;SDS011;24840;47.508;19.376;2023-03-23T16:11:37;6.18;;;1.55;;
39094;SDS011;24840;47.508;19.376;2023-03-23T16:14:03;3.60;;;1.33;;
39094;SDS011;24840;47.508;19.376;2023-03-23T16:16:30;8.57;;;1.63;;
39094;SDS011;24840;47.508;19.376;2023-03-23T16:18:58;5.68;;;1.65;;
39094;SDS011;24840;47.508;19.376;2023-03-23T16:21:24;14.52;;;1.88;;
39094;SDS011;24840;47.508;19.376;2023-03-23T16:23:50;10.65;;;1.52;;
39094;SDS011;24840;47.508;19.376;2023-03-23T16:26:16;5.97;;;2.03;;
39094;SDS011;24840;47.508;19.376;2023-03-23T16:28:42;10.23;;;1.27;;
39094;SDS011;24840;47.508;19.376;2023-03-23T16:31:08;6.65;;;1.75;;
39094;SDS011;24840;47.508;19.376;2023-03-23T16:33:34;2.45;;;1.02;;
39094;SDS011;24840;47.508;19.376;2023-03-23T16:36:00;2.10;;;0.98;;
39094;SDS011;24840;47.508;19.376;2023-03-23T16:38:26;4.25;;;1.08;;
39094;SDS011;24840;47.508;19.376;2023-03-23T16:40:51;4.88;;;1.13;;
39094;SDS011;24840;47.508;19.376;2023-03-23T16:43:17;5.38;;;1.08;;
39094;SDS011;24840;47.508;19.376;2023-03-23T16:45:43;2.45;;;1.15;;
39094;SDS011;24840;47.508;19.376;2023-03-23T16:48:11;1.95;;;1.10;;
39094;SDS011;24840;47.508;19.376;2023-03-23T16:50:38;2.88;;;1.05;;
39094;SDS011;24840;47.508;19.376;2023-03-23T16:53:05;2.72;;;1.10;;
39094;SDS011;24840;47.508;19.376;2023-03-23T16:55:32;2.42;;;0.80;;
39094;SDS011;24840;47.508;19.376;2023-03-23T16:57:58;5.05;;;1.45;;
39094;SDS011;24840;47.508;19.376;2023-03-23T17:00:25;2.65;;;1.08;;
39094;SDS011;24840;47.508;19.376;2023-03-23T17:02:52;2.70;;;1.40;;